^^
Cohasset Weather Station Historical Data
 
Daily Summary for August 21, 2019 Units:  English    Metric   Both
Daily Weekly Monthly Yearly Custom
  Current: High: Low: Average:
Temperature: 65.5 °F 87.6 °F 59.2 °F 70.1 °F
Dew Point: 58.1 °F 64.4 °F 46.5 °F 55.4 °F
Humidity: 77% 81% 34% 62%
Wind Speed: 0mph 0mph 0mph 0mph
Wind Gust: 0mph 0mph - -
WindCalm - - North
Pressure: 29.98 in 30.07 in 29.97 in -
Precipitation: 0 in      
Historical Graphs
 
 
Tabular Data for August 21, 2019
Time Temperature Dew Point Pressure Wind Wind Speed Wind Gust Humidity Rainfall Rate (Hourly) solar
00:00 60.4 °F 54.2 °F 30.07 in Calm     80% 0 in WeatherDisplay:10.37 W/m2
00:05 60.3 °F 54.1 °F 30.07 in Calm     80% 0 in WeatherDisplay:10.37 W/m2
00:10 60.3 °F 54.1 °F 30.07 in Calm     80% 0 in WeatherDisplay:10.37 W/m2
00:15 60.1 °F 53.9 °F 30.07 in Calm     80% 0 in WeatherDisplay:10.37 W/m2
00:20 60.1 °F 53.9 °F 30.07 in Calm     80% 0 in WeatherDisplay:10.37 W/m2
00:25 60.1 °F 54.2 °F 30.07 in Calm     81% 0 in WeatherDisplay:10.37 W/m2
00:30 59.9 °F 54.1 °F 30.07 in Calm     81% 0 in WeatherDisplay:10.37 W/m2
00:35 59.9 °F 54.1 °F 30.07 in Calm     81% 0 in WeatherDisplay:10.37 W/m2
00:40 59.9 °F 54.1 °F 30.07 in Calm     81% 0 in WeatherDisplay:10.37 W/m2
00:45 59.9 °F 54.1 °F 30.06 in Calm     81% 0 in WeatherDisplay:10.37 W/m2
00:50 59.9 °F 53.7 °F 30.06 in Calm     80% 0 in WeatherDisplay:10.37 W/m2
00:55 59.9 °F 53.7 °F 30.06 in Calm     80% 0 in WeatherDisplay:10.37 W/m2
01:00 59.7 °F 53.2 °F 30.06 in Calm     79% 0 in WeatherDisplay:10.37 W/m2
01:05 59.7 °F 53.2 °F 30.06 in Calm     79% 0 in WeatherDisplay:10.37 W/m2
01:10 59.7 °F 53.2 °F 30.06 in Calm     79% 0 in WeatherDisplay:10.37 W/m2
01:15 59.7 °F 53.2 °F 30.06 in Calm     79% 0 in WeatherDisplay:10.37 W/m2
01:20 59.7 °F 53.2 °F 30.06 in Calm     79% 0 in WeatherDisplay:10.37 W/m2
01:25 59.7 °F 52.8 °F 30.06 in Calm     78% 0 in WeatherDisplay:10.37 W/m2
01:30 59.7 °F 52.8 °F 30.06 in Calm     78% 0 in WeatherDisplay:10.37 W/m2
01:35 59.7 °F 53.2 °F 30.07 in Calm     79% 0 in WeatherDisplay:10.37 W/m2
01:40 59.7 °F 53.5 °F 30.07 in Calm     80% 0 in WeatherDisplay:10.37 W/m2
01:45 59.9 °F 54.1 °F 30.07 in Calm     81% 0 in WeatherDisplay:10.37 W/m2
01:50 60.1 °F 54.2 °F 30.07 in Calm     81% 0 in WeatherDisplay:10.37 W/m2
01:55 60.3 °F 53.8 °F 30.07 in Calm     79% 0 in WeatherDisplay:10.37 W/m2
02:00 60.5 °F 53.2 °F 30.07 in Calm     77% 0 in WeatherDisplay:10.37 W/m2
02:05 60.8 °F 53.5 °F 30.07 in Calm     77% 0 in WeatherDisplay:10.37 W/m2
02:10 61 °F 53.7 °F 30.06 in Calm     77% 0 in WeatherDisplay:10.37 W/m2
02:15 61.2 °F 54.3 °F 30.06 in Calm     78% 0 in WeatherDisplay:10.37 W/m2
02:20 61.3 °F 55.1 °F 30.06 in Calm     80% 0 in WeatherDisplay:10.37 W/m2
02:25 61.3 °F 55.1 °F 30.06 in Calm     80% 0 in WeatherDisplay:10.37 W/m2
02:30 61.3 °F 55.1 °F 30.06 in Calm     80% 0 in WeatherDisplay:10.37 W/m2
02:35 61.2 °F 55.3 °F 30.05 in Calm     81% 0 in WeatherDisplay:10.37 W/m2
02:40 61 °F 55.1 °F 30.05 in Calm     81% 0 in WeatherDisplay:10.37 W/m2
02:45 60.8 °F 54.6 °F 30.05 in Calm     80% 0 in WeatherDisplay:10.37 W/m2
02:50 60.8 °F 53.9 °F 30.05 in Calm     78% 0 in WeatherDisplay:10.37 W/m2
02:55 60.8 °F 52.5 °F 30.06 in Calm     74% 0 in WeatherDisplay:10.37 W/m2
03:00 60.8 °F 52.5 °F 30.06 in Calm     74% 0 in WeatherDisplay:10.37 W/m2
03:05 60.8 °F 52.8 °F 30.06 in Calm     75% 0 in WeatherDisplay:10.37 W/m2
03:10 60.8 °F 52.8 °F 30.05 in Calm     75% 0 in WeatherDisplay:10.37 W/m2
03:15 60.8 °F 52.5 °F 30.05 in Calm     74% 0 in WeatherDisplay:10.37 W/m2
03:20 60.6 °F 52.3 °F 30.05 in Calm     74% 0 in WeatherDisplay:10.37 W/m2
03:25 60.6 °F 52.3 °F 30.05 in Calm     74% 0 in WeatherDisplay:10.37 W/m2
03:30 60.6 °F 51.9 °F 30.05 in Calm     73% 0 in WeatherDisplay:10.37 W/m2
03:35 60.6 °F 51.9 °F 30.05 in Calm     73% 0 in WeatherDisplay:10.37 W/m2
03:40 60.4 °F 51.7 °F 30.05 in Calm     73% 0 in WeatherDisplay:10.37 W/m2
03:45 60.4 °F 52.1 °F 30.05 in Calm     74% 0 in WeatherDisplay:10.37 W/m2
03:50 60.4 °F 52.1 °F 30.05 in Calm     74% 0 in WeatherDisplay:10.37 W/m2
03:55 60.3 °F 52 °F 30.05 in Calm     74% 0 in WeatherDisplay:10.37 W/m2
04:00 60.1 °F 51.8 °F 30.05 in Calm     74% 0 in WeatherDisplay:10.37 W/m2
04:05 59.9 °F 51.6 °F 30.05 in Calm     74% 0 in WeatherDisplay:10.37 W/m2
04:10 59.9 °F 51.6 °F 30.05 in Calm     74% 0 in WeatherDisplay:10.37 W/m2
04:15 59.9 °F 51.6 °F 30.05 in Calm     74% 0 in WeatherDisplay:10.37 W/m2
04:20 59.7 °F 51.4 °F 30.05 in Calm     74% 0 in WeatherDisplay:10.37 W/m2
04:25 59.7 °F 51.4 °F 30.05 in Calm     74% 0 in WeatherDisplay:10.37 W/m2
04:30 59.5 °F 51.2 °F 30.05 in Calm     74% 0 in WeatherDisplay:10.37 W/m2
04:35 59.5 °F 51.2 °F 30.05 in Calm     74% 0 in WeatherDisplay:10.37 W/m2
04:40 59.4 °F 51.1 °F 30.05 in Calm     74% 0 in WeatherDisplay:10.37 W/m2
04:45 59.4 °F 51.1 °F 30.05 in Calm     74% 0 in WeatherDisplay:10.37 W/m2
04:50 59.4 °F 51.1 °F 30.05 in Calm     74% 0 in WeatherDisplay:10.37 W/m2
04:55 59.2 °F 50.9 °F 30.05 in Calm     74% 0 in WeatherDisplay:10.37 W/m2
05:00 59.2 °F 51.3 °F 30.05 in Calm     75% 0 in WeatherDisplay:10.37 W/m2
05:05 59.2 °F 50.9 °F 30.05 in Calm     74% 0 in WeatherDisplay:10.37 W/m2
05:10 59.2 °F 50.9 °F 30.05 in Calm     74% 0 in WeatherDisplay:10.37 W/m2
05:15 59.2 °F 50.2 °F 30.05 in Calm     72% 0 in WeatherDisplay:10.37 W/m2
05:20 59.5 °F 50.1 °F 30.04 in Calm     71% 0 in WeatherDisplay:10.37 W/m2
05:25 60.3 °F 49.7 °F 30.04 in Calm     68% 0 in WeatherDisplay:10.37 W/m2
05:30 60.5 °F 49.9 °F 30.04 in Calm     68% 0 in WeatherDisplay:10.37 W/m2
05:35 61.2 °F 49.7 °F 30.04 in Calm     66% 0 in WeatherDisplay:10.37 W/m2
05:40 61.5 °F 49.6 °F 30.04 in Calm     65% 0 in WeatherDisplay:10.37 W/m2
05:45 61.7 °F 49.4 °F 30.05 in Calm     64% 0 in WeatherDisplay:10.37 W/m2
05:50 62.1 °F 49.4 °F 30.05 in Calm     63% 0 in WeatherDisplay:10.37 W/m2
05:55 62.1 °F 49.4 °F 30.05 in Calm     63% 0 in WeatherDisplay:10.37 W/m2
06:00 62.1 °F 49.8 °F 30.05 in Calm     64% 0 in WeatherDisplay:10.37 W/m2
06:05 62.1 °F 49.8 °F 30.05 in Calm     64% 0 in WeatherDisplay:10.37 W/m2
06:10 62.1 °F 49.4 °F 30.05 in Calm     63% 0 in WeatherDisplay:10.37 W/m2
06:15 62 °F 49.2 °F 30.05 in Calm     63% 0 in WeatherDisplay:10.37 W/m2
06:20 61.9 °F 48.7 °F 30.04 in Calm     62% 0 in WeatherDisplay:10.37 W/m2
06:25 61.9 °F 47.9 °F 30.04 in Calm     60% 0 in WeatherDisplay:10.37 W/m2
06:30 61.9 °F 47.9 °F 30.04 in Calm     60% 0 in WeatherDisplay:10.37 W/m2
06:35 62.4 °F 47.4 °F 30.05 in Calm     58% 0 in WeatherDisplay:10.37 W/m2
06:40 62.4 °F 46.5 °F 30.05 in Calm     56% 0 in WeatherDisplay:10.37 W/m2
06:45 62.4 °F 47 °F 30.05 in Calm     57% 0 in WeatherDisplay:10.37 W/m2
06:50 62.6 °F 47.1 °F 30.05 in Calm     57% 0 in WeatherDisplay:10.37 W/m2
06:55 62.6 °F 47.1 °F 30.05 in Calm     57% 0 in WeatherDisplay:10.37 W/m2
07:00 62.6 °F 47.6 °F 30.05 in Calm     58% 0 in WeatherDisplay:10.37 W/m2
07:05 62.6 °F 47.6 °F 30.05 in Calm     58% 0 in WeatherDisplay:10.37 W/m2
07:10 62.6 °F 48.1 °F 30.05 in Calm     59% 0 in WeatherDisplay:10.37 W/m2
07:15 62.6 °F 47.6 °F 30.05 in Calm     58% 0 in WeatherDisplay:10.37 W/m2
07:20 62.6 °F 47.6 °F 30.06 in Calm     58% 0 in WeatherDisplay:10.37 W/m2
07:25 62.6 °F 47.6 °F 30.06 in Calm     58% 0 in WeatherDisplay:10.37 W/m2
07:30 62.9 °F 47.4 °F 30.06 in Calm     57% 0 in WeatherDisplay:10.37 W/m2
07:35 63.1 °F 48.1 °F 30.06 in Calm     58% 0 in WeatherDisplay:10.37 W/m2
07:40 63.3 °F 48.3 °F 30.06 in Calm     58% 0 in WeatherDisplay:10.37 W/m2
07:45 63.5 °F 48.5 °F 30.06 in Calm     58% 0 in WeatherDisplay:10.37 W/m2
07:50 63.7 °F 48.2 °F 30.06 in Calm     57% 0 in WeatherDisplay:10.37 W/m2
07:55 63.9 °F 47.4 °F 30.06 in Calm     55% 0 in WeatherDisplay:10.37 W/m2
08:00 63.9 °F 47.9 °F 30.05 in Calm     56% 0 in WeatherDisplay:10.37 W/m2
08:05 64.2 °F 47.7 °F 30.05 in Calm     55% 0 in WeatherDisplay:10.37 W/m2
08:10 64.6 °F 48.1 °F 30.06 in Calm     55% 0 in WeatherDisplay:10.37 W/m2
08:15 64.9 °F 48.8 °F 30.06 in Calm     56% 0 in WeatherDisplay:10.37 W/m2
08:20 65.3 °F 48.2 °F 30.05 in Calm     54% 0 in WeatherDisplay:10.37 W/m2
08:25 65.3 °F 47.7 °F 30.05 in Calm     53% 0 in WeatherDisplay:10.37 W/m2
08:30 65.8 °F 48.2 °F 30.05 in Calm     53% 0 in WeatherDisplay:10.37 W/m2
08:35 66.6 °F 48.4 °F 30.06 in Calm     52% 0 in WeatherDisplay:10.37 W/m2
08:40 66.9 °F 48.7 °F 30.06 in Calm     52% 0 in WeatherDisplay:10.37 W/m2
08:45 67.8 °F 48.5 °F 30.05 in Calm     50% 0 in WeatherDisplay:10.37 W/m2
08:50 68.2 °F 48.8 °F 30.05 in Calm     50% 0 in WeatherDisplay:10.37 W/m2
08:55 68.5 °F 49.1 °F 30.05 in Calm     50% 0 in WeatherDisplay:10.37 W/m2
09:00 69.3 °F 48.8 °F 30.05 in Calm     48% 0 in WeatherDisplay:10.37 W/m2
09:05 70.5 °F 50.4 °F 30.05 in Calm     49% 0 in WeatherDisplay:10.37 W/m2
09:10 70.5 °F 50.4 °F 30.05 in Calm     49% 0 in WeatherDisplay:10.37 W/m2
09:15 70.7 °F 50.6 °F 30.05 in Calm     49% 0 in WeatherDisplay:10.37 W/m2
09:20 70.7 °F 51.7 °F 30.05 in Calm     51% 0 in WeatherDisplay:10.37 W/m2
09:25 70.5 °F 54.5 °F 30.05 in Calm     57% 0 in WeatherDisplay:10.37 W/m2
09:30 70.7 °F 52.2 °F 30.05 in Calm     52% 0 in WeatherDisplay:10.37 W/m2
09:35 70.9 °F 53.4 °F 30.06 in Calm     54% 0 in WeatherDisplay:10.37 W/m2
09:40 70.9 °F 54.4 °F 30.06 in Calm     56% 0 in WeatherDisplay:10.37 W/m2
09:45 70.9 °F 53.4 °F 30.05 in Calm     54% 0 in WeatherDisplay:10.37 W/m2
09:50 71.1 °F 54.1 °F 30.05 in Calm     55% 0 in WeatherDisplay:10.37 W/m2
09:55 71.2 °F 54.7 °F 30.05 in Calm     56% 0 in WeatherDisplay:10.37 W/m2
10:00 71.2 °F 54.7 °F 30.05 in Calm     56% 0 in WeatherDisplay:10.37 W/m2
10:05 71.4 °F 54.4 °F 30.05 in Calm     55% 0 in WeatherDisplay:10.37 W/m2
10:10 71.8 °F 54.3 °F 30.05 in Calm     54% 0 in WeatherDisplay:10.37 W/m2
10:15 72.3 °F 53.1 °F 30.05 in Calm     51% 0 in WeatherDisplay:10.37 W/m2
10:20 73 °F 53.3 °F 30.05 in Calm     50% 0 in WeatherDisplay:10.37 W/m2
10:25 73.9 °F 53.5 °F 30.05 in Calm     49% 0 in WeatherDisplay:10.37 W/m2
10:30 74.1 °F 53.7 °F 30.05 in Calm     49% 0 in WeatherDisplay:10.37 W/m2
10:35 74.5 °F 53.5 °F 30.05 in Calm     48% 0 in WeatherDisplay:10.37 W/m2
10:40 75 °F 54 °F 30.05 in Calm     48% 0 in WeatherDisplay:10.37 W/m2
10:45 75.6 °F 54.5 °F 30.05 in Calm     48% 0 in WeatherDisplay:10.37 W/m2
10:50 75.9 °F 52.4 °F 30.05 in Calm     44% 0 in WeatherDisplay:10.37 W/m2
10:55 76.1 °F 52.6 °F 30.05 in Calm     44% 0 in WeatherDisplay:10.37 W/m2
11:00 76.5 °F 53.6 °F 30.05 in Calm     45% 0 in WeatherDisplay:10.37 W/m2
11:05 76.6 °F 53.7 °F 30.05 in Calm     45% 0 in WeatherDisplay:10.37 W/m2
11:10 77.7 °F 53.4 °F 30.05 in Calm     43% 0 in WeatherDisplay:10.37 W/m2
11:15 77.7 °F 54 °F 30.05 in Calm     44% 0 in WeatherDisplay:10.37 W/m2
11:20 77.5 °F 54.5 °F 30.05 in Calm     45% 0 in WeatherDisplay:10.37 W/m2
11:25 77.4 °F 55 °F 30.05 in Calm     46% 0 in WeatherDisplay:10.37 W/m2
11:30 77.9 °F 54.8 °F 30.05 in Calm     45% 0 in WeatherDisplay:10.37 W/m2
11:35 77.7 °F 54.7 °F 30.05 in Calm     45% 0 in WeatherDisplay:10.37 W/m2
11:40 77.7 °F 54.7 °F 30.05 in Calm     45% 0 in WeatherDisplay:10.37 W/m2
11:45 77.5 °F 54.5 °F 30.05 in Calm     45% 0 in WeatherDisplay:10.37 W/m2
11:50 77.7 °F 54.7 °F 30.05 in Calm     45% 0 in WeatherDisplay:10.37 W/m2
11:55 77.9 °F 54.8 °F 30.05 in Calm     45% 0 in WeatherDisplay:10.37 W/m2
12:00 78.8 °F 55 °F 30.05 in Calm     44% 0 in WeatherDisplay:10.37 W/m2
12:05 78.8 °F 54.4 °F 30.05 in Calm     43% 0 in WeatherDisplay:10.37 W/m2
12:10 79 °F 54.6 °F 30.04 in Calm     43% 0 in WeatherDisplay:10.37 W/m2
12:15 78.8 °F 55 °F 30.04 in Calm     44% 0 in WeatherDisplay:10.37 W/m2
12:20 78.6 °F 55.5 °F 30.05 in Calm     45% 0 in WeatherDisplay:10.37 W/m2
12:25 78.8 °F 56.3 °F 30.05 in Calm     46% 0 in WeatherDisplay:10.37 W/m2
12:30 79.3 °F 56.1 °F 30.05 in Calm     45% 0 in WeatherDisplay:10.37 W/m2
12:35 78.1 °F 56.2 °F 30.05 in Calm     47% 0 in WeatherDisplay:10.37 W/m2
12:40 77.4 °F 55.6 °F 30.05 in Calm     47% 0 in WeatherDisplay:10.37 W/m2
12:45 77.1 °F 55.9 °F 30.04 in Calm     48% 0 in WeatherDisplay:10.37 W/m2
12:50 78.1 °F 56.2 °F 30.04 in Calm     47% 0 in WeatherDisplay:10.37 W/m2
12:55 78.4 °F 56.5 °F 30.04 in Calm     47% 0 in WeatherDisplay:10.37 W/m2
13:00 78.3 °F 55.8 °F 30.04 in Calm     46% 0 in WeatherDisplay:10.37 W/m2
13:05 78.4 °F 56.5 °F 30.04 in Calm     47% 0 in WeatherDisplay:10.37 W/m2
13:10 77.4 °F 56.7 °F 30.03 in Calm     49% 0 in WeatherDisplay:10.37 W/m2
13:15 77.6 °F 56.3 °F 30.03 in Calm     48% 0 in WeatherDisplay:10.37 W/m2
13:20 77.2 °F 56.6 °F 30.04 in Calm     49% 0 in WeatherDisplay:10.37 W/m2
13:25 80.1 °F 57.5 °F 30.04 in Calm     46% 0 in WeatherDisplay:10.37 W/m2
13:30 81.5 °F 56.8 °F 30.04 in Calm     43% 0 in WeatherDisplay:10.37 W/m2
13:35 83.3 °F 56.5 °F 30.03 in Calm     40% 0 in WeatherDisplay:10.37 W/m2
13:40 82.9 °F 55.4 °F 30.03 in Calm     39% 0 in WeatherDisplay:10.37 W/m2
13:45 83.9 °F 56.3 °F 30.03 in Calm     39% 0 in WeatherDisplay:10.37 W/m2
13:50 82.6 °F 55.1 °F 30.03 in Calm     39% 0 in WeatherDisplay:10.37 W/m2
13:55 82.8 °F 56.7 °F 30.03 in Calm     41% 0 in WeatherDisplay:10.37 W/m2
14:00 82.2 °F 56.2 °F 30.03 in Calm     41% 0 in WeatherDisplay:10.37 W/m2
14:05 81.3 °F 56.7 °F 30.03 in Calm     43% 0 in WeatherDisplay:10.37 W/m2
14:10 82.6 °F 56.5 °F 30.03 in Calm     41% 0 in WeatherDisplay:10.37 W/m2
14:15 82 °F 55.9 °F 30.03 in Calm     41% 0 in WeatherDisplay:10.37 W/m2
14:20 82.8 °F 56 °F 30.03 in Calm     40% 0 in WeatherDisplay:10.37 W/m2
14:25 81.3 °F 55.3 °F 30.03 in Calm     41% 0 in WeatherDisplay:10.37 W/m2
14:30 83.3 °F 55.7 °F 30.03 in Calm     39% 0 in WeatherDisplay:10.37 W/m2
14:35 84.9 °F 55 °F 30.02 in Calm     36% 0 in WeatherDisplay:10.37 W/m2
14:40 84.2 °F 55.1 °F 30.02 in Calm     37% 0 in WeatherDisplay:10.37 W/m2
14:45 87.6 °F 55.8 °F 30.02 in Calm     34% 0 in WeatherDisplay:10.37 W/m2
14:50 86 °F 55.9 °F 30.02 in Calm     36% 0 in WeatherDisplay:10.37 W/m2
14:55 82.8 °F 56.7 °F 30.02 in Calm     41% 0 in WeatherDisplay:10.37 W/m2
15:00 82.9 °F 56.1 °F 30.02 in Calm     40% 0 in WeatherDisplay:10.37 W/m2
15:05 82.6 °F 57.2 °F 30.02 in Calm     42% 0 in WeatherDisplay:10.37 W/m2
15:10 82.8 °F 58 °F 30.02 in Calm     43% 0 in WeatherDisplay:10.37 W/m2
15:15 82 °F 58.6 °F 30.02 in Calm     45% 0 in WeatherDisplay:10.37 W/m2
15:20 82.8 °F 58.7 °F 30.01 in Calm     44% 0 in WeatherDisplay:10.37 W/m2
15:25 80.4 °F 57.7 °F 30.01 in Calm     46% 0 in WeatherDisplay:10.37 W/m2
15:30 81.7 °F 58.9 °F 30.01 in Calm     46% 0 in WeatherDisplay:10.37 W/m2
15:35 81 °F 58.3 °F 30.01 in Calm     46% 0 in WeatherDisplay:10.37 W/m2
15:40 79.5 °F 58.1 °F 30.01 in Calm     48% 0 in WeatherDisplay:10.37 W/m2
15:45 80.4 °F 58.3 °F 30.01 in Calm     47% 0 in WeatherDisplay:10.37 W/m2
15:50 80.2 °F 59.9 °F 30.01 in Calm     50% 0 in WeatherDisplay:10.37 W/m2
15:55 79.5 °F 60.9 °F 30.00 in Calm     53% 0 in WeatherDisplay:10.37 W/m2
16:00 79.3 °F 60.1 °F 30.00 in Calm     52% 0 in WeatherDisplay:10.37 W/m2
16:05 80.8 °F 58.7 °F 30.00 in Calm     47% 0 in WeatherDisplay:10.37 W/m2
16:10 81 °F 58.9 °F 29.99 in Calm     47% 0 in WeatherDisplay:10.37 W/m2
16:15 80 °F 60.2 °F 29.99 in Calm     51% 0 in WeatherDisplay:10.37 W/m2
16:20 79.2 °F 61.1 °F 29.99 in Calm     54% 0 in WeatherDisplay:10.37 W/m2
16:25 79.3 °F 61.2 °F 29.99 in Calm     54% 0 in WeatherDisplay:10.37 W/m2
16:30 79.7 °F 61.1 °F 29.99 in Calm     53% 0 in WeatherDisplay:10.37 W/m2
16:35 80.1 °F 60.3 °F 29.99 in Calm     51% 0 in WeatherDisplay:10.37 W/m2
16:40 80.2 °F 59.9 °F 29.99 in Calm     50% 0 in WeatherDisplay:10.37 W/m2
16:45 81.3 °F 58.5 °F 29.99 in Calm     46% 0 in WeatherDisplay:10.37 W/m2
16:50 80.2 °F 59.9 °F 29.99 in Calm     50% 0 in WeatherDisplay:10.37 W/m2
16:55 81.7 °F 59.5 °F 29.98 in Calm     47% 0 in WeatherDisplay:10.37 W/m2
17:00 80.7 °F 60.4 °F 29.98 in Calm     50% 0 in WeatherDisplay:10.37 W/m2
17:05 82 °F 60.4 °F 29.98 in Calm     48% 0 in WeatherDisplay:10.37 W/m2
17:10 82.4 °F 60.1 °F 29.98 in Calm     47% 0 in WeatherDisplay:10.37 W/m2
17:15 82.4 °F 60.1 °F 29.98 in Calm     47% 0 in WeatherDisplay:10.37 W/m2
17:20 82.2 °F 61.1 °F 29.98 in Calm     49% 0 in WeatherDisplay:10.37 W/m2
17:25 82 °F 62.6 °F 29.98 in Calm     52% 0 in WeatherDisplay:10.37 W/m2
17:30 81.9 °F 63.1 °F 29.98 in Calm     53% 0 in WeatherDisplay:10.37 W/m2
17:35 81.1 °F 62.9 °F 29.97 in Calm     54% 0 in WeatherDisplay:10.37 W/m2
17:40 81 °F 63.8 °F 29.97 in Calm     56% 0 in WeatherDisplay:10.37 W/m2
17:45 80.8 °F 63.6 °F 29.98 in Calm     56% 0 in WeatherDisplay:10.37 W/m2
17:50 80.2 °F 63.6 °F 29.98 in Calm     57% 0 in WeatherDisplay:10.37 W/m2
17:55 79.9 °F 63.3 °F 29.98 in Calm     57% 0 in WeatherDisplay:10.37 W/m2
18:00 79.7 °F 63.6 °F 29.98 in Calm     58% 0 in WeatherDisplay:10.37 W/m2
18:05 79.3 °F 63.7 °F 29.98 in Calm     59% 0 in WeatherDisplay:10.37 W/m2
18:10 79.2 °F 63.6 °F 29.98 in Calm     59% 0 in WeatherDisplay:10.37 W/m2
18:15 79 °F 64.4 °F 29.98 in Calm     61% 0 in WeatherDisplay:10.37 W/m2
18:20 78.6 °F 64 °F 29.98 in Calm     61% 0 in WeatherDisplay:10.37 W/m2
18:25 78.4 °F 63.8 °F 29.98 in Calm     61% 0 in WeatherDisplay:10.37 W/m2
18:30 78.3 °F 64.2 °F 29.98 in Calm     62% 0 in WeatherDisplay:10.37 W/m2
18:35 77.9 °F 63.4 °F 29.98 in Calm     61% 0 in WeatherDisplay:10.37 W/m2
18:40 77.5 °F 63 °F 29.98 in Calm     61% 0 in WeatherDisplay:10.37 W/m2
18:45 77 °F 63.5 °F 29.97 in Calm     63% 0 in WeatherDisplay:10.37 W/m2
18:50 76.6 °F 63.1 °F 29.97 in Calm     63% 0 in WeatherDisplay:10.37 W/m2
18:55 76.1 °F 63 °F 29.97 in Calm     64% 0 in WeatherDisplay:10.37 W/m2
19:00 75.8 °F 63.2 °F 29.97 in Calm     65% 0 in WeatherDisplay:10.37 W/m2
19:05 75.4 °F 63.7 °F 29.97 in Calm     67% 0 in WeatherDisplay:10.37 W/m2
19:10 74.7 °F 63.9 °F 29.97 in Calm     69% 0 in WeatherDisplay:10.37 W/m2
19:15 73.9 °F 63.1 °F 29.97 in Calm     69% 0 in WeatherDisplay:10.37 W/m2
19:20 73.8 °F 63.4 °F 29.97 in Calm     70% 0 in WeatherDisplay:10.37 W/m2
19:25 73.6 °F 63.2 °F 29.97 in Calm     70% 0 in WeatherDisplay:10.37 W/m2
19:30 73.2 °F 62.8 °F 29.97 in Calm     70% 0 in WeatherDisplay:10.37 W/m2
19:35 72.7 °F 62.3 °F 29.97 in Calm     70% 0 in WeatherDisplay:10.37 W/m2
19:40 72.3 °F 62.4 °F 29.97 in Calm     71% 0 in WeatherDisplay:10.37 W/m2
19:45 71.8 °F 62.7 °F 29.97 in Calm     73% 0 in WeatherDisplay:10.37 W/m2
19:50 71.4 °F 62.7 °F 29.97 in Calm     74% 0 in WeatherDisplay:10.37 W/m2
19:55 71.2 °F 62.9 °F 29.97 in Calm     75% 0 in WeatherDisplay:10.37 W/m2
20:00 70.8 °F 63.2 °F 29.97 in Calm     77% 0 in WeatherDisplay:10.37 W/m2
20:05 70.3 °F 62.7 °F 29.97 in Calm     77% 0 in WeatherDisplay:10.37 W/m2
20:10 70.2 °F 62.6 °F 29.98 in Calm     77% 0 in WeatherDisplay:10.37 W/m2
20:15 69.7 °F 62.5 °F 29.98 in Calm     78% 0 in WeatherDisplay:10.37 W/m2
20:20 69.3 °F 62.1 °F 29.98 in Calm     78% 0 in WeatherDisplay:10.37 W/m2
20:25 69.1 °F 61.9 °F 29.98 in Calm     78% 0 in WeatherDisplay:10.37 W/m2
20:30 68.6 °F 61.5 °F 29.98 in Calm     78% 0 in WeatherDisplay:10.37 W/m2
20:35 68.4 °F 61.3 °F 29.98 in Calm     78% 0 in WeatherDisplay:10.37 W/m2
20:40 67.8 °F 61 °F 29.98 in Calm     79% 0 in WeatherDisplay:10.37 W/m2
20:45 67.5 °F 60.8 °F 29.99 in Calm     79% 0 in WeatherDisplay:10.37 W/m2
20:50 67.5 °F 60.8 °F 29.99 in Calm     79% 0 in WeatherDisplay:10.37 W/m2
20:55 67.1 °F 60.4 °F 29.99 in Calm     79% 0 in WeatherDisplay:10.37 W/m2
21:00 67 °F 60.2 °F 29.98 in Calm     79% 0 in WeatherDisplay:10.37 W/m2
21:05 66.6 °F 59.9 °F 29.98 in Calm     79% 0 in WeatherDisplay:10.37 W/m2
21:10 66.6 °F 59.9 °F 29.98 in Calm     79% 0 in WeatherDisplay:10.37 W/m2
21:15 66.4 °F 59.7 °F 29.98 in Calm     79% 0 in WeatherDisplay:10.37 W/m2
21:20 66.2 °F 59.5 °F 29.99 in Calm     79% 0 in WeatherDisplay:10.37 W/m2
21:25 66 °F 59.3 °F 29.99 in Calm     79% 0 in WeatherDisplay:10.37 W/m2
21:30 65.9 °F 59.2 °F 29.99 in Calm     79% 0 in WeatherDisplay:10.37 W/m2
21:35 65.8 °F 59.1 °F 29.98 in Calm     79% 0 in WeatherDisplay:10.37 W/m2
21:40 65.7 °F 59 °F 29.98 in Calm     79% 0 in WeatherDisplay:10.37 W/m2
21:45 65.7 °F 59.3 °F 29.98 in Calm     80% 0 in WeatherDisplay:10.37 W/m2
21:50 65.5 °F 59.2 °F 29.98 in Calm     80% 0 in WeatherDisplay:10.37 W/m2
21:55 65.5 °F 59.2 °F 29.98 in Calm     80% 0 in WeatherDisplay:10.37 W/m2
22:00 65.5 °F 59.2 °F 29.98 in Calm     80% 0 in WeatherDisplay:10.37 W/m2
22:05 65.5 °F 58.8 °F 29.98 in Calm     79% 0 in WeatherDisplay:10.37 W/m2
22:10 65.5 °F 58.8 °F 29.98 in Calm     79% 0 in WeatherDisplay:10.37 W/m2
22:15 65.5 °F 58.8 °F 29.98 in Calm     79% 0 in WeatherDisplay:10.37 W/m2
22:20 65.5 °F 58.8 °F 29.98 in Calm     79% 0 in WeatherDisplay:10.37 W/m2
22:25 65.5 °F 58.8 °F 29.98 in Calm     79% 0 in WeatherDisplay:10.37 W/m2
22:30 65.5 °F 58.5 °F 29.98 in Calm     78% 0 in WeatherDisplay:10.37 W/m2
22:35 65.5 °F 58.5 °F 29.98 in Calm     78% 0 in WeatherDisplay:10.37 W/m2
22:40 65.5 °F 58.1 °F 29.98 in Calm     77% 0 in WeatherDisplay:10.37 W/m2
22:45 65.5 °F 58.1 °F 29.98 in Calm     77% 0 in WeatherDisplay:10.37 W/m2
Cohasset, California, USA
Compliments of Weather Underground - 2.25 mb